sensor_id;sensor_type;location;lat;lon;timestamp;pressure;altitude;pressure_sealevel;temperature;humidity
61678;BME280;47575;52.054;4.334;2022-11-20T00:00:20;101542.22;;;-1.17;100.00
61678;BME280;47575;52.054;4.334;2022-11-20T00:02:47;101544.56;;;-1.26;100.00
61678;BME280;47575;52.054;4.334;2022-11-20T00:05:15;101537.78;;;-1.23;100.00
61678;BME280;47575;52.054;4.334;2022-11-20T00:07:42;101536.53;;;-1.05;100.00
61678;BME280;47575;52.054;4.334;2022-11-20T00:10:09;101533.09;;;-1.06;100.00
61678;BME280;47575;52.054;4.334;2022-11-20T00:12:36;101539.88;;;-1.08;100.00
61678;BME280;47575;52.054;4.334;2022-11-20T00:15:03;101533.03;;;-1.09;100.00
61678;BME280;47575;52.054;4.334;2022-11-20T00:17:31;101541.66;;;-1.05;100.00
61678;BME280;47575;52.054;4.334;2022-11-20T00:19:58;101547.53;;;-1.11;100.00
61678;BME280;47575;52.054;4.334;2022-11-20T00:22:27;101550.69;;;-1.20;100.00
61678;BME280;47575;52.054;4.334;2022-11-20T00:24:54;101539.66;;;-1.17;100.00
61678;BME280;47575;52.054;4.334;2022-11-20T00:27:22;101543.94;;;-1.18;100.00
61678;BME280;47575;52.054;4.334;2022-11-20T00:29:49;101540.78;;;-1.06;100.00
61678;BME280;47575;52.054;4.334;2022-11-20T00:32:16;101534.34;;;-1.23;100.00
61678;BME280;47575;52.054;4.334;2022-11-20T00:34:43;101534.13;;;-1.31;100.00
61678;BME280;47575;52.054;4.334;2022-11-20T00:37:10;101536.75;;;-1.29;100.00
61678;BME280;47575;52.054;4.334;2022-11-20T00:39:38;101537.56;;;-1.30;100.00
61678;BME280;47575;52.054;4.334;2022-11-20T00:42:05;101537.72;;;-1.26;100.00
61678;BME280;47575;52.054;4.334;2022-11-20T00:44:32;101541.84;;;-1.31;100.00
61678;BME280;47575;52.054;4.334;2022-11-20T00:46:59;101542.69;;;-1.32;100.00
61678;BME280;47575;52.054;4.334;2022-11-20T00:49:26;101536.41;;;-1.42;100.00
61678;BME280;47575;52.054;4.334;2022-11-20T00:51:53;101532.72;;;-1.20;100.00
61678;BME280;47575;52.054;4.334;2022-11-20T00:54:20;101540.34;;;-1.23;100.00
61678;BME280;47575;52.054;4.334;2022-11-20T00:56:48;101544.75;;;-1.19;100.00
61678;BME280;47575;52.054;4.334;2022-11-20T00:59:15;101542.75;;;-1.29;100.00
61678;BME280;47575;52.054;4.334;2022-11-20T01:01:42;101552.25;;;-1.26;100.00
61678;BME280;47575;52.054;4.334;2022-11-20T01:04:10;101547.00;;;-1.29;100.00
61678;BME280;47575;52.054;4.334;2022-11-20T01:06:38;101539.75;;;-1.44;100.00
61678;BME280;47575;52.054;4.334;2022-11-20T01:09:06;101532.44;;;-1.30;100.00
61678;BME280;47575;52.054;4.334;2022-11-20T01:11:34;101533.09;;;-1.37;100.00
61678;BME280;47575;52.054;4.334;2022-11-20T01:14:03;101523.31;;;-1.51;100.00
61678;BME280;47575;52.054;4.334;2022-11-20T01:16:32;101533.69;;;-1.48;100.00
61678;BME280;47575;52.054;4.334;2022-11-20T01:19:00;101540.72;;;-1.41;100.00
61678;BME280;47575;52.054;4.334;2022-11-20T01:21:28;101558.69;;;-1.41;100.00
61678;BME280;47575;52.054;4.334;2022-11-20T01:23:55;101564.72;;;-1.40;100.00
61678;BME280;47575;52.054;4.334;2022-11-20T01:26:24;101553.44;;;-1.45;100.00
61678;BME280;47575;52.054;4.334;2022-11-20T01:28:55;101555.16;;;-1.44;100.00
61678;BME280;47575;52.054;4.334;2022-11-20T01:31:24;101549.19;;;-1.43;100.00
61678;BME280;47575;52.054;4.334;2022-11-20T01:33:53;101548.88;;;-1.55;100.00
61678;BME280;47575;52.054;4.334;2022-11-20T01:36:21;101543.13;;;-1.47;100.00
61678;BME280;47575;52.054;4.334;2022-11-20T01:38:50;101544.72;;;-1.50;100.00
61678;BME280;47575;52.054;4.334;2022-11-20T01:41:17;101544.19;;;-1.38;100.00
61678;BME280;47575;52.054;4.334;2022-11-20T01:43:58;101550.34;;;-1.33;100.00
61678;BME280;47575;52.054;4.334;2022-11-20T01:46:27;101552.56;;;-1.46;100.00
61678;BME280;47575;52.054;4.334;2022-11-20T01:48:54;101549.69;;;-1.56;100.00
61678;BME280;47575;52.054;4.334;2022-11-20T01:51:25;101553.34;;;-1.48;100.00
61678;BME280;47575;52.054;4.334;2022-11-20T01:53:54;101543.94;;;-1.48;100.00
61678;BME280;47575;52.054;4.334;2022-11-20T01:56:22;101547.28;;;-1.50;100.00
61678;BME280;47575;52.054;4.334;2022-11-20T01:58:51;101542.94;;;-1.53;100.00
61678;BME280;47575;52.054;4.334;2022-11-20T02:01:19;101550.16;;;-1.40;100.00
61678;BME280;47575;52.054;4.334;2022-11-20T02:03:48;101543.13;;;-1.47;100.00
61678;BME280;47575;52.054;4.334;2022-11-20T02:06:17;101547.47;;;-1.44;100.00
61678;BME280;47575;52.054;4.334;2022-11-20T02:08:46;101546.56;;;-1.46;100.00
61678;BME280;47575;52.054;4.334;2022-11-20T02:11:12;101558.59;;;-1.44;100.00
61678;BME280;47575;52.054;4.334;2022-11-20T02:13:39;101553.06;;;-1.27;100.00
61678;BME280;47575;52.054;4.334;2022-11-20T02:16:09;101552.69;;;-1.41;100.00
61678;BME280;47575;52.054;4.334;2022-11-20T02:18:36;101545.97;;;-1.36;100.00
61678;BME280;47575;52.054;4.334;2022-11-20T02:21:06;101549.03;;;-1.19;100.00
61678;BME280;47575;52.054;4.334;2022-11-20T02:23:36;101551.75;;;-1.43;100.00
61678;BME280;47575;52.054;4.334;2022-11-20T02:26:07;101537.84;;;-1.51;100.00
61678;BME280;47575;52.054;4.334;2022-11-20T02:28:35;101543.53;;;-1.31;100.00
61678;BME280;47575;52.054;4.334;2022-11-20T02:31:03;101533.34;;;-1.28;100.00
61678;BME280;47575;52.054;4.334;2022-11-20T02:33:30;101536.50;;;-1.38;100.00
61678;BME280;47575;52.054;4.334;2022-11-20T02:35:57;101530.16;;;-1.51;100.00
61678;BME280;47575;52.054;4.334;2022-11-20T02:38:24;101529.53;;;-1.43;100.00
61678;BME280;47575;52.054;4.334;2022-11-20T02:40:51;101523.25;;;-1.54;100.00
61678;BME280;47575;52.054;4.334;2022-11-20T02:43:19;101523.34;;;-1.49;100.00
61678;BME280;47575;52.054;4.334;2022-11-20T02:45:46;101519.97;;;-1.48;100.00
61678;BME280;47575;52.054;4.334;2022-11-20T02:48:13;101523.88;;;-1.61;100.00
61678;BME280;47575;52.054;4.334;2022-11-20T02:50:40;101520.22;;;-1.39;100.00
61678;BME280;47575;52.054;4.334;2022-11-20T02:53:07;101520.41;;;-1.33;100.00
61678;BME280;47575;52.054;4.334;2022-11-20T02:55:34;101525.16;;;-1.47;100.00
61678;BME280;47575;52.054;4.334;2022-11-20T02:58:01;101513.91;;;-1.50;100.00
61678;BME280;47575;52.054;4.334;2022-11-20T03:00:30;101510.28;;;-1.57;100.00
61678;BME280;47575;52.054;4.334;2022-11-20T03:02:57;101500.78;;;-1.61;100.00
61678;BME280;47575;52.054;4.334;2022-11-20T03:05:24;101503.22;;;-1.65;100.00
61678;BME280;47575;52.054;4.334;2022-11-20T03:07:51;101493.78;;;-1.67;100.00
61678;BME280;47575;52.054;4.334;2022-11-20T03:10:18;101510.59;;;-1.48;100.00
61678;BME280;47575;52.054;4.334;2022-11-20T03:12:45;101510.81;;;-1.38;100.00
61678;BME280;47575;52.054;4.334;2022-11-20T03:15:12;101501.72;;;-1.57;100.00
61678;BME280;47575;52.054;4.334;2022-11-20T03:17:40;101496.88;;;-1.48;100.00
61678;BME280;47575;52.054;4.334;2022-11-20T03:20:08;101491.63;;;-1.51;100.00
61678;BME280;47575;52.054;4.334;2022-11-20T03:22:35;101488.34;;;-1.47;100.00
61678;BME280;47575;52.054;4.334;2022-11-20T03:25:02;101481.38;;;-1.51;100.00
61678;BME280;47575;52.054;4.334;2022-11-20T03:27:31;101502.97;;;-1.43;100.00
61678;BME280;47575;52.054;4.334;2022-11-20T03:29:58;101495.50;;;-1.35;100.00
61678;BME280;47575;52.054;4.334;2022-11-20T03:32:25;101490.66;;;-1.56;100.00
61678;BME280;47575;52.054;4.334;2022-11-20T03:34:54;101494.41;;;-1.44;100.00
61678;BME280;47575;52.054;4.334;2022-11-20T03:37:21;101493.72;;;-1.38;100.00
61678;BME280;47575;52.054;4.334;2022-11-20T03:39:48;101482.38;;;-1.46;100.00
61678;BME280;47575;52.054;4.334;2022-11-20T03:42:14;101487.06;;;-1.31;100.00
61678;BME280;47575;52.054;4.334;2022-11-20T03:44:56;101489.47;;;-1.36;100.00
61678;BME280;47575;52.054;4.334;2022-11-20T03:47:23;101475.88;;;-1.33;100.00
61678;BME280;47575;52.054;4.334;2022-11-20T03:49:50;101469.19;;;-1.27;100.00
61678;BME280;47575;52.054;4.334;2022-11-20T03:52:19;101461.00;;;-1.45;100.00
61678;BME280;47575;52.054;4.334;2022-11-20T03:54:46;101446.03;;;-1.61;100.00
61678;BME280;47575;52.054;4.334;2022-11-20T03:57:12;101442.63;;;-1.60;100.00
61678;BME280;47575;52.054;4.334;2022-11-20T03:59:39;101444.81;;;-1.74;100.00
61678;BME280;47575;52.054;4.334;2022-11-20T04:02:07;101434.50;;;-1.76;100.00
61678;BME280;47575;52.054;4.334;2022-11-20T04:04:34;101431.75;;;-1.83;100.00
61678;BME280;47575;52.054;4.334;2022-11-20T04:07:00;101430.84;;;-1.85;100.00
61678;BME280;47575;52.054;4.334;2022-11-20T04:09:29;101426.78;;;-1.77;100.00
61678;BME280;47575;52.054;4.334;2022-11-20T04:11:56;101421.66;;;-1.77;100.00
61678;BME280;47575;52.054;4.334;2022-11-20T04:14:23;101411.19;;;-1.85;100.00
61678;BME280;47575;52.054;4.334;2022-11-20T04:16:50;101405.03;;;-1.90;100.00
61678;BME280;47575;52.054;4.334;2022-11-20T04:19:17;101408.47;;;-1.89;100.00
61678;BME280;47575;52.054;4.334;2022-11-20T04:21:46;101410.31;;;-1.85;100.00
61678;BME280;47575;52.054;4.334;2022-11-20T04:24:13;101420.69;;;-1.81;100.00
61678;BME280;47575;52.054;4.334;2022-11-20T04:26:41;101411.88;;;-1.90;100.00
61678;BME280;47575;52.054;4.334;2022-11-20T04:29:10;101410.41;;;-1.81;100.00
61678;BME280;47575;52.054;4.334;2022-11-20T04:31:37;101432.56;;;-1.84;100.00
61678;BME280;47575;52.054;4.334;2022-11-20T04:34:05;101433.25;;;-1.90;100.00
61678;BME280;47575;52.054;4.334;2022-11-20T04:36:32;101432.47;;;-1.87;100.00
61678;BME280;47575;52.054;4.334;2022-11-20T04:39:00;101436.03;;;-1.82;100.00
61678;BME280;47575;52.054;4.334;2022-11-20T04:41:28;101429.03;;;-1.88;100.00
61678;BME280;47575;52.054;4.334;2022-11-20T04:43:58;101417.66;;;-1.98;100.00
61678;BME280;47575;52.054;4.334;2022-11-20T04:46:29;101426.41;;;-1.91;100.00
61678;BME280;47575;52.054;4.334;2022-11-20T04:48:57;101420.41;;;-1.91;100.00
61678;BME280;47575;52.054;4.334;2022-11-20T04:51:24;101415.31;;;-1.90;100.00
61678;BME280;47575;52.054;4.334;2022-11-20T04:53:51;101413.53;;;-1.92;100.00
61678;BME280;47575;52.054;4.334;2022-11-20T04:56:18;101417.94;;;-1.87;100.00
61678;BME280;47575;52.054;4.334;2022-11-20T04:58:45;101414.38;;;-1.93;100.00
61678;BME280;47575;52.054;4.334;2022-11-20T05:01:14;101418.81;;;-1.86;100.00
61678;BME280;47575;52.054;4.334;2022-11-20T05:03:42;101423.25;;;-1.81;100.00
61678;BME280;47575;52.054;4.334;2022-11-20T05:06:09;101428.59;;;-1.73;100.00
61678;BME280;47575;52.054;4.334;2022-11-20T05:08:37;101421.66;;;-1.77;100.00
61678;BME280;47575;52.054;4.334;2022-11-20T05:11:05;101434.53;;;-1.74;100.00
61678;BME280;47575;52.054;4.334;2022-11-20T05:13:32;101427.63;;;-1.78;100.00
61678;BME280;47575;52.054;4.334;2022-11-20T05:16:02;101413.66;;;-1.86;100.00
61678;BME280;47575;52.054;4.334;2022-11-20T05:18:31;101423.25;;;-1.81;100.00
61678;BME280;47575;52.054;4.334;2022-11-20T05:20:58;101421.97;;;-1.65;100.00
61678;BME280;47575;52.054;4.334;2022-11-20T05:23:25;101425.19;;;-1.72;100.00
61678;BME280;47575;52.054;4.334;2022-11-20T05:25:55;101427.75;;;-1.72;100.00
61678;BME280;47575;52.054;4.334;2022-11-20T05:28:22;101426.31;;;-1.62;100.00
61678;BME280;47575;52.054;4.334;2022-11-20T05:30:49;101430.66;;;-1.60;100.00
61678;BME280;47575;52.054;4.334;2022-11-20T05:33:17;101415.44;;;-1.54;100.00
61678;BME280;47575;52.054;4.334;2022-11-20T05:35:45;101411.13;;;-1.55;100.00
61678;BME280;47575;52.054;4.334;2022-11-20T05:38:12;101406.69;;;-1.60;100.00
61678;BME280;47575;52.054;4.334;2022-11-20T05:40:39;101403.28;;;-1.59;100.00
61678;BME280;47575;52.054;4.334;2022-11-20T05:43:06;101394.56;;;-1.66;100.00
61678;BME280;47575;52.054;4.334;2022-11-20T05:45:33;101392.66;;;-1.73;100.00
61678;BME280;47575;52.054;4.334;2022-11-20T05:48:00;101388.50;;;-1.70;100.00
61678;BME280;47575;52.054;4.334;2022-11-20T05:50:27;101378.97;;;-1.74;100.00
61678;BME280;47575;52.054;4.334;2022-11-20T05:52:56;101376.13;;;-1.84;100.00
61678;BME280;47575;52.054;4.334;2022-11-20T05:55:24;101379.72;;;-1.78;100.00
61678;BME280;47575;52.054;4.334;2022-11-20T05:57:51;101375.72;;;-1.67;100.00
61678;BME280;47575;52.054;4.334;2022-11-20T06:00:18;101362.00;;;-1.69;100.00
61678;BME280;47575;52.054;4.334;2022-11-20T06:02:45;101365.16;;;-1.79;100.00
61678;BME280;47575;52.054;4.334;2022-11-20T06:05:12;101358.53;;;-1.71;100.00
61678;BME280;47575;52.054;4.334;2022-11-20T06:07:39;101369.72;;;-1.67;100.00
61678;BME280;47575;52.054;4.334;2022-11-20T06:10:08;101364.53;;;-1.70;100.00
61678;BME280;47575;52.054;4.334;2022-11-20T06:12:35;101356.75;;;-1.72;100.00
61678;BME280;47575;52.054;4.334;2022-11-20T06:15:02;101358.75;;;-1.61;100.00
61678;BME280;47575;52.054;4.334;2022-11-20T06:17:30;101350.91;;;-1.68;100.00
61678;BME280;47575;52.054;4.334;2022-11-20T06:19:57;101348.50;;;-1.61;100.00
61678;BME280;47575;52.054;4.334;2022-11-20T06:22:24;101350.91;;;-1.68;100.00
61678;BME280;47575;52.054;4.334;2022-11-20T06:24:51;101347.47;;;-1.68;100.00
61678;BME280;47575;52.054;4.334;2022-11-20T06:27:19;101344.88;;;-1.70;100.00
61678;BME280;47575;52.054;4.334;2022-11-20T06:29:47;101346.94;;;-1.56;100.00
61678;BME280;47575;52.054;4.334;2022-11-20T06:32:13;101349.53;;;-1.55;100.00
61678;BME280;47575;52.054;4.334;2022-11-20T06:34:40;101357.44;;;-1.46;100.00
61678;BME280;47575;52.054;4.334;2022-11-20T06:37:07;101358.09;;;-1.54;100.00
61678;BME280;47575;52.054;4.334;2022-11-20T06:39:34;101354.66;;;-1.55;100.00
61678;BME280;47575;52.054;4.334;2022-11-20T06:42:02;101360.00;;;-1.46;100.00
61678;BME280;47575;52.054;4.334;2022-11-20T06:44:30;101363.28;;;-1.51;100.00
61678;BME280;47575;52.054;4.334;2022-11-20T06:46:58;101360.75;;;-1.50;100.00
61678;BME280;47575;52.054;4.334;2022-11-20T06:49:25;101355.19;;;-1.33;100.00
61678;BME280;47575;52.054;4.334;2022-11-20T06:51:52;101357.16;;;-1.22;100.00
61678;BME280;47575;52.054;4.334;2022-11-20T06:54:19;101368.06;;;-1.32;100.00
61678;BME280;47575;52.054;4.334;2022-11-20T06:56:46;101355.09;;;-1.36;100.00
61678;BME280;47575;52.054;4.334;2022-11-20T06:59:13;101352.81;;;-1.26;100.00
61678;BME280;47575;52.054;4.334;2022-11-20T07:01:41;101352.06;;;-1.20;100.00
61678;BME280;47575;52.054;4.334;2022-11-20T07:04:08;101353.28;;;-1.04;100.00
61678;BME280;47575;52.054;4.334;2022-11-20T07:06:35;101352.94;;;-1.20;100.00
61678;BME280;47575;52.054;4.334;2022-11-20T07:09:02;101351.38;;;-1.13;100.00
61678;BME280;47575;52.054;4.334;2022-11-20T07:11:29;101346.34;;;-1.10;100.00
61678;BME280;47575;52.054;4.334;2022-11-20T07:13:56;101344.66;;;-1.08;100.00
61678;BME280;47575;52.054;4.334;2022-11-20T07:16:23;101341.41;;;-1.01;100.00
61678;BME280;47575;52.054;4.334;2022-11-20T07:18:52;101347.56;;;-0.94;100.00
61678;BME280;47575;52.054;4.334;2022-11-20T07:21:19;101337.97;;;-1.01;100.00
61678;BME280;47575;52.054;4.334;2022-11-20T07:23:46;101349.28;;;-0.93;100.00
61678;BME280;47575;52.054;4.334;2022-11-20T07:26:13;101351.91;;;-0.90;100.00
61678;BME280;47575;52.054;4.334;2022-11-20T07:28:43;101360.72;;;-0.80;100.00
61678;BME280;47575;52.054;4.334;2022-11-20T07:31:10;101357.44;;;-0.73;100.00
61678;BME280;47575;52.054;4.334;2022-11-20T07:33:38;101356.50;;;-0.77;100.00
61678;BME280;47575;52.054;4.334;2022-11-20T07:36:07;101348.63;;;-0.85;100.00
61678;BME280;47575;52.054;4.334;2022-11-20T07:38:34;101360.09;;;-0.69;100.00
61678;BME280;47575;52.054;4.334;2022-11-20T07:41:01;101359.22;;;-0.71;100.00
61678;BME280;47575;52.054;4.334;2022-11-20T07:43:28;101361.88;;;-0.66;100.00
61678;BME280;47575;52.054;4.334;2022-11-20T07:45:56;101364.72;;;-0.54;100.00
61678;BME280;47575;52.054;4.334;2022-11-20T07:48:23;101360.50;;;-0.52;100.00
61678;BME280;47575;52.054;4.334;2022-11-20T07:50:52;101363.13;;;-0.49;100.00
61678;BME280;47575;52.054;4.334;2022-11-20T07:53:21;101362.38;;;-0.43;100.00
61678;BME280;47575;52.054;4.334;2022-11-20T07:55:48;101358.09;;;-0.44;100.00
61678;BME280;47575;52.054;4.334;2022-11-20T07:58:17;101355.50;;;-0.44;100.00
61678;BME280;47575;52.054;4.334;2022-11-20T08:00:44;101346.25;;;-0.36;100.00
61678;BME280;47575;52.054;4.334;2022-11-20T08:03:14;101346.44;;;-0.25;100.00
61678;BME280;47575;52.054;4.334;2022-11-20T08:05:41;101352.28;;;-0.34;100.00
61678;BME280;47575;52.054;4.334;2022-11-20T08:08:08;101353.34;;;-0.23;100.00
61678;BME280;47575;52.054;4.334;2022-11-20T08:10:36;101350.91;;;-0.17;100.00
61678;BME280;47575;52.054;4.334;2022-11-20T08:13:05;101333.03;;;-0.09;100.00
61678;BME280;47575;52.054;4.334;2022-11-20T08:15:49;101351.00;;;-0.12;100.00
61678;BME280;47575;52.054;4.334;2022-11-20T08:18:17;101349.72;;;0.10;100.00
61678;BME280;47575;52.054;4.334;2022-11-20T08:20:44;101348.88;;;0.11;100.00
61678;BME280;47575;52.054;4.334;2022-11-20T08:23:11;101352.31;;;0.11;100.00
61678;BME280;47575;52.054;4.334;2022-11-20T08:25:40;101348.13;;;0.18;100.00
61678;BME280;47575;52.054;4.334;2022-11-20T08:28:08;101344.47;;;0.07;100.00
61678;BME280;47575;52.054;4.334;2022-11-20T08:30:36;101348.13;;;0.16;100.00
61678;BME280;47575;52.054;4.334;2022-11-20T08:33:04;101349.19;;;0.29;100.00
61678;BME280;47575;52.054;4.334;2022-11-20T08:35:32;101343.84;;;0.17;100.00
61678;BME280;47575;52.054;4.334;2022-11-20T08:37:59;101337.97;;;0.24;100.00
61678;BME280;47575;52.054;4.334;2022-11-20T08:40:26;101335.63;;;0.38;100.00
61678;BME280;47575;52.054;4.334;2022-11-20T08:42:55;101344.53;;;0.57;100.00
61678;BME280;47575;52.054;4.334;2022-11-20T08:45:22;101339.97;;;0.40;100.00
61678;BME280;47575;52.054;4.334;2022-11-20T08:47:49;101343.63;;;0.54;100.00
61678;BME280;47575;52.054;4.334;2022-11-20T08:50:16;101341.84;;;0.52;100.00
61678;BME280;47575;52.054;4.334;2022-11-20T08:52:43;101340.94;;;0.48;100.00
61678;BME280;47575;52.054;4.334;2022-11-20T08:55:11;101330.78;;;0.58;100.00
61678;BME280;47575;52.054;4.334;2022-11-20T08:57:38;101329.28;;;0.69;100.00
61678;BME280;47575;52.054;4.334;2022-11-20T09:00:07;101345.72;;;0.77;100.00
61678;BME280;47575;52.054;4.334;2022-11-20T09:02:34;101346.59;;;0.77;100.00
61678;BME280;47575;52.054;4.334;2022-11-20T09:05:02;101347.31;;;0.69;100.00
61678;BME280;47575;52.054;4.334;2022-11-20T09:07:29;101338.94;;;0.82;100.00
61678;BME280;47575;52.054;4.334;2022-11-20T09:09:57;101338.88;;;0.80;100.00
61678;BME280;47575;52.054;4.334;2022-11-20T09:12:24;101328.78;;;0.93;100.00
61678;BME280;47575;52.054;4.334;2022-11-20T09:14:51;101322.91;;;1.03;100.00
61678;BME280;47575;52.054;4.334;2022-11-20T09:17:19;101321.25;;;1.05;100.00
61678;BME280;47575;52.054;4.334;2022-11-20T09:19:47;101315.28;;;1.10;100.00
61678;BME280;47575;52.054;4.334;2022-11-20T09:22:14;101309.25;;;1.10;100.00
61678;BME280;47575;52.054;4.334;2022-11-20T09:24:42;101298.97;;;1.11;100.00
61678;BME280;47575;52.054;4.334;2022-11-20T09:27:09;101288.53;;;1.04;100.00
61678;BME280;47575;52.054;4.334;2022-11-20T09:29:36;101293.03;;;1.19;100.00
61678;BME280;47575;52.054;4.334;2022-11-20T09:32:03;101294.00;;;1.25;100.00
61678;BME280;47575;52.054;4.334;2022-11-20T09:34:32;101288.84;;;1.25;100.00
61678;BME280;47575;52.054;4.334;2022-11-20T09:36:59;101280.31;;;1.31;100.00
61678;BME280;47575;52.054;4.334;2022-11-20T09:39:26;101276.97;;;1.36;100.00
61678;BME280;47575;52.054;4.334;2022-11-20T09:41:56;101278.72;;;1.41;100.00
61678;BME280;47575;52.054;4.334;2022-11-20T09:44:34;101271.13;;;1.53;100.00
61678;BME280;47575;52.054;4.334;2022-11-20T09:47:07;101271.31;;;1.70;100.00
61678;BME280;47575;52.054;4.334;2022-11-20T09:49:39;101266.91;;;1.58;100.00
61678;BME280;47575;52.054;4.334;2022-11-20T09:52:14;101259.38;;;1.78;100.00
61678;BME280;47575;52.054;4.334;2022-11-20T09:54:47;101250.69;;;1.70;100.00
61678;BME280;47575;52.054;4.334;2022-11-20T09:57:17;101249.94;;;1.81;100.00
61678;BME280;47575;52.054;4.334;2022-11-20T09:59:46;101229.38;;;1.89;100.00
61678;BME280;47575;52.054;4.334;2022-11-20T10:02:16;101236.09;;;1.73;100.00
61678;BME280;47575;52.054;4.334;2022-11-20T10:04:47;101221.59;;;1.86;100.00
61678;BME280;47575;52.054;4.334;2022-11-20T10:07:16;101222.44;;;1.82;100.00
61678;BME280;47575;52.054;4.334;2022-11-20T10:09:48;101217.41;;;1.96;100.00
61678;BME280;47575;52.054;4.334;2022-11-20T10:12:18;101208.00;;;2.05;100.00
61678;BME280;47575;52.054;4.334;2022-11-20T10:14:53;101202.91;;;2.10;100.00
61678;BME280;47575;52.054;4.334;2022-11-20T10:17:27;101192.56;;;2.11;100.00
61678;BME280;47575;52.054;4.334;2022-11-20T10:22:43;101190.91;;;2.16;100.00
61678;BME280;47575;52.054;4.334;2022-11-20T10:25:14;101188.28;;;2.12;100.00
61678;BME280;47575;52.054;4.334;2022-11-20T10:27:55;101181.44;;;2.17;100.00
61678;BME280;47575;52.054;4.334;2022-11-20T10:30:25;101182.25;;;2.10;100.00
61678;BME280;47575;52.054;4.334;2022-11-20T10:32:54;101170.19;;;2.09;100.00
61678;BME280;47575;52.054;4.334;2022-11-20T10:35:22;101174.50;;;2.13;100.00
61678;BME280;47575;52.054;4.334;2022-11-20T10:37:53;101173.69;;;2.17;100.00
61678;BME280;47575;52.054;4.334;2022-11-20T10:40:23;101167.63;;;2.13;100.00
61678;BME280;47575;52.054;4.334;2022-11-20T10:42:53;101159.81;;;2.04;100.00
61678;BME280;47575;52.054;4.334;2022-11-20T10:45:28;101157.28;;;2.15;100.00
61678;BME280;47575;52.054;4.334;2022-11-20T10:48:01;101158.19;;;2.17;100.00
61678;BME280;47575;52.054;4.334;2022-11-20T10:50:34;101146.97;;;2.15;100.00
61678;BME280;47575;52.054;4.334;2022-11-20T10:53:04;101142.69;;;2.17;100.00
61678;BME280;47575;52.054;4.334;2022-11-20T10:55:40;101144.53;;;2.32;100.00
61678;BME280;47575;52.054;4.334;2022-11-20T10:58:13;101135.97;;;2.40;100.00
61678;BME280;47575;52.054;4.334;2022-11-20T11:00:40;101133.47;;;2.54;100.00
61678;BME280;47575;52.054;4.334;2022-11-20T11:03:22;101122.31;;;2.64;100.00
61678;BME280;47575;52.054;4.334;2022-11-20T11:05:51;101121.44;;;2.64;100.00
61678;BME280;47575;52.054;4.334;2022-11-20T11:08:33;101120.63;;;2.72;100.00
61678;BME280;47575;52.054;4.334;2022-11-20T11:11:02;101106.84;;;2.72;100.00
61678;BME280;47575;52.054;4.334;2022-11-20T11:13:33;101103.31;;;2.55;100.00
61678;BME280;47575;52.054;4.334;2022-11-20T11:16:00;101101.66;;;2.72;100.00
61678;BME280;47575;52.054;4.334;2022-11-20T11:18:30;101095.66;;;2.77;100.00
61678;BME280;47575;52.054;4.334;2022-11-20T11:20:58;101090.47;;;2.74;100.00
61678;BME280;47575;52.054;4.334;2022-11-20T11:23:28;101083.56;;;2.73;100.00
61678;BME280;47575;52.054;4.334;2022-11-20T11:25:57;101075.84;;;2.83;100.00
61678;BME280;47575;52.054;4.334;2022-11-20T11:28:25;101068.94;;;2.78;100.00
61678;BME280;47575;52.054;4.334;2022-11-20T11:30:53;101056.06;;;2.86;100.00
61678;BME280;47575;52.054;4.334;2022-11-20T11:33:21;101048.34;;;3.08;100.00
61678;BME280;47575;52.054;4.334;2022-11-20T11:35:49;101047.50;;;3.16;100.00
61678;BME280;47575;52.054;4.334;2022-11-20T11:38:21;101031.97;;;3.18;100.00
61678;BME280;47575;52.054;4.334;2022-11-20T11:40:52;101028.50;;;3.20;100.00
61678;BME280;47575;52.054;4.334;2022-11-20T11:43:20;101025.06;;;3.09;100.00
61678;BME280;47575;52.054;4.334;2022-11-20T11:46:08;101011.28;;;2.99;100.00
61678;BME280;47575;52.054;4.334;2022-11-20T11:48:36;101010.44;;;3.16;100.00
61678;BME280;47575;52.054;4.334;2022-11-20T11:51:07;101013.00;;;3.14;100.00
61678;BME280;47575;52.054;4.334;2022-11-20T11:53:35;101010.41;;;3.13;100.00
61678;BME280;47575;52.054;4.334;2022-11-20T11:56:07;101017.31;;;3.11;100.00
61678;BME280;47575;52.054;4.334;2022-11-20T11:58:40;101019.91;;;3.11;100.00
61678;BME280;47575;52.054;4.334;2022-11-20T12:01:12;101013.84;;;2.95;100.00
61678;BME280;47575;52.054;4.334;2022-11-20T12:03:46;101008.69;;;3.10;100.00
61678;BME280;47575;52.054;4.334;2022-11-20T12:06:19;101012.09;;;2.97;100.00
61678;BME280;47575;52.054;4.334;2022-11-20T12:08:47;101000.91;;;2.98;100.00
61678;BME280;47575;52.054;4.334;2022-11-20T12:11:18;100989.72;;;2.94;100.00
61678;BME280;47575;52.054;4.334;2022-11-20T12:13:48;100983.69;;;3.03;100.00
61678;BME280;47575;52.054;4.334;2022-11-20T12:16:19;100975.94;;;3.15;100.00
61678;BME280;47575;52.054;4.334;2022-11-20T12:18:48;100988.00;;;3.25;100.00
61678;BME280;47575;52.054;4.334;2022-11-20T12:21:18;100990.59;;;3.33;100.00
61678;BME280;47575;52.054;4.334;2022-11-20T12:23:59;100977.66;;;3.25;100.00
61678;BME280;47575;52.054;4.334;2022-11-20T12:26:34;100983.69;;;3.40;100.00
61678;BME280;47575;52.054;4.334;2022-11-20T12:29:06;100975.06;;;3.41;100.00
61678;BME280;47575;52.054;4.334;2022-11-20T12:31:40;100977.66;;;3.44;100.00
61678;BME280;47575;52.054;4.334;2022-11-20T12:34:19;100966.44;;;3.40;100.00
61678;BME280;47575;52.054;4.334;2022-11-20T12:36:51;100961.28;;;3.37;100.00
61678;BME280;47575;52.054;4.334;2022-11-20T12:39:30;100950.06;;;3.41;100.00
61678;BME280;47575;52.054;4.334;2022-11-20T12:42:15;100941.44;;;3.44;100.00
61678;BME280;47575;52.054;4.334;2022-11-20T12:45:06;100944.00;;;3.53;100.00
61678;BME280;47575;52.054;4.334;2022-11-20T12:47:45;100939.69;;;3.55;100.00
61678;BME280;47575;52.054;4.334;2022-11-20T12:50:15;100936.25;;;3.48;100.00
61678;BME280;47575;52.054;4.334;2022-11-20T12:52:46;100938.84;;;3.47;100.00